createdAt,value
2018-11-05T00:00:59.078Z,97545.44
2018-11-05T00:02:03.357Z,97548.06
2018-11-05T00:03:06.537Z,97539.92
2018-11-05T00:04:10.207Z,97533.44
2018-11-05T00:05:13.235Z,97537.66
2018-11-05T00:06:16.196Z,97533.58
2018-11-05T00:07:19.704Z,97533.58
2018-11-05T00:08:23.701Z,97529.75
2018-11-05T00:09:27.077Z,97533.13
2018-11-05T00:10:30.615Z,97528.16
2018-11-05T00:11:33.387Z,97518.45
2018-11-05T00:12:36.522Z,97515.84
2018-11-05T00:13:39.311Z,97514.97
2018-11-05T00:14:42.394Z,97508.86
2018-11-05T00:15:45.887Z,97516.75
2018-11-05T00:16:48.691Z,97516.84
2018-11-05T00:17:52.747Z,97516.28
2018-11-05T00:18:55.801Z,97520.68
2018-11-05T00:19:58.906Z,97513.32
2018-11-05T00:21:02.977Z,97515.02
2018-11-05T00:22:06.504Z,97510.70
2018-11-05T00:23:09.276Z,97511.03
2018-11-05T00:24:15.180Z,97508.80
2018-11-05T00:25:18.752Z,97510.70
2018-11-05T00:26:21.613Z,97506.09
2018-11-05T00:27:24.674Z,97510.16
2018-11-05T00:28:27.484Z,97503.91
2018-11-05T00:29:30.375Z,97503.58
2018-11-05T00:30:33.414Z,97496.02
2018-11-05T00:31:36.261Z,97490.92
2018-11-05T00:32:39.015Z,97494.42
2018-11-05T00:33:45.725Z,97487.97
2018-11-05T00:34:49.050Z,97484.23
2018-11-05T00:35:51.884Z,97483.12
2018-11-05T00:36:55.525Z,97482.78
2018-11-05T00:37:58.340Z,97491.95
2018-11-05T00:39:01.616Z,97490.11
2018-11-05T00:40:06.381Z,97484.14
2018-11-05T00:41:09.379Z,97485.26
2018-11-05T00:42:12.909Z,97485.26
2018-11-05T00:43:15.900Z,97479.05
2018-11-05T00:44:18.956Z,97478.80
2018-11-05T00:45:21.679Z,97475.28
2018-11-05T00:46:25.422Z,97471.69
2018-11-05T00:47:29.077Z,97477.89
2018-11-05T00:48:34.666Z,97478.71
2018-11-05T00:49:37.803Z,97483.33
2018-11-05T00:50:42.379Z,97484.38
2018-11-05T00:51:45.322Z,97474.06
2018-11-05T00:52:48.362Z,97476.00
2018-11-05T00:53:52.120Z,97475.07
2018-11-05T00:54:55.472Z,97470.76
2018-11-05T00:55:58.197Z,97465.58
2018-11-05T00:57:01.154Z,97466.11
2018-11-05T00:58:03.933Z,97467.71
2018-11-05T00:59:07.974Z,97466.83
2018-11-05T01:00:10.843Z,97462.52
2018-11-05T01:01:13.582Z,97466.02
2018-11-05T01:02:16.474Z,97464.42
2018-11-05T01:03:19.966Z,97464.42
2018-11-05T01:04:22.806Z,97461.50
2018-11-05T01:05:26.089Z,97463.41
2018-11-05T01:06:28.903Z,97457.43
2018-11-05T01:07:31.664Z,97458.07
2018-11-05T01:08:34.433Z,97454.91
2018-11-05T01:09:37.294Z,97455.12
2018-11-05T01:10:40.185Z,97459.67
2018-11-05T01:11:43.463Z,97460.00
2018-11-05T01:12:46.225Z,97462.14
2018-11-05T01:13:49.639Z,97466.93
2018-11-05T01:14:52.437Z,97461.95
2018-11-05T01:15:55.752Z,97459.47
2018-11-05T01:16:58.535Z,97459.95
2018-11-05T01:18:01.325Z,97460.73
2018-11-05T01:19:04.259Z,97461.76
2018-11-05T01:20:06.993Z,97455.88
2018-11-05T01:21:09.755Z,97456.52
2018-11-05T01:22:12.569Z,97462.97
2018-11-05T01:23:16.643Z,97458.91
2018-11-05T01:24:19.817Z,97461.31
2018-11-05T01:25:23.052Z,97465.14
2018-11-05T01:26:27.088Z,97467.95
2018-11-05T01:27:29.907Z,97462.77
2018-11-05T01:28:33.327Z,97462.38
2018-11-05T01:29:36.090Z,97459.91
2018-11-05T01:30:39.271Z,97460.93
2018-11-05T01:31:42.042Z,97464.42
2018-11-05T01:32:46.262Z,97463.41
2018-11-05T01:33:49.732Z,97464.31
2018-11-05T01:34:52.467Z,97457.73
2018-11-05T01:35:55.199Z,97459.57
2018-11-05T01:36:58.814Z,97452.00
2018-11-05T01:38:01.654Z,97449.50
2018-11-05T01:39:06.057Z,97443.77
2018-11-05T01:40:08.910Z,97447.50
2018-11-05T01:41:12.620Z,97436.89
2018-11-05T01:42:16.223Z,97438.79
2018-11-05T01:43:19.287Z,97438.79
2018-11-05T01:44:23.606Z,97440.38
2018-11-05T01:45:26.320Z,97438.24
2018-11-05T01:46:29.063Z,97436.98
2018-11-05T01:47:31.853Z,97435.94
2018-11-05T01:48:34.693Z,97432.30
2018-11-05T01:49:38.263Z,97430.84
2018-11-05T01:50:42.467Z,97436.03
2018-11-05T01:51:45.237Z,97427.11
2018-11-05T01:52:48.278Z,97434.91
2018-11-05T01:53:51.041Z,97429.25
2018-11-05T01:54:53.784Z,97427.59
2018-11-05T01:55:57.034Z,97419.55
2018-11-05T01:56:59.800Z,97430.20
2018-11-05T01:58:02.588Z,97421.92
2018-11-05T01:59:06.898Z,97418.87
2018-11-05T02:00:09.629Z,97424.20
2018-11-05T02:01:15.293Z,97423.32
2018-11-05T02:02:18.548Z,97424.10
2018-11-05T02:03:21.729Z,97424.20
2018-11-05T02:04:24.762Z,97421.72
2018-11-05T02:05:27.671Z,97424.44
2018-11-05T02:06:30.894Z,97419.01
2018-11-05T02:07:34.339Z,97421.25
2018-11-05T02:08:37.558Z,97425.89
2018-11-05T02:09:40.330Z,97421.82
2018-11-05T02:10:43.062Z,97420.13
2018-11-05T02:11:46.806Z,97415.82
2018-11-05T02:12:49.581Z,97410.97
2018-11-05T02:13:52.370Z,97415.38
2018-11-05T02:14:56.790Z,97417.17
2018-11-05T02:16:00.642Z,97410.87
2018-11-05T02:17:04.622Z,97410.87
2018-11-05T02:18:08.737Z,97410.87
2018-11-05T02:19:11.476Z,97412.23
2018-11-05T02:20:15.215Z,97413.82
2018-11-05T02:21:18.455Z,97406.22
2018-11-05T02:22:25.704Z,97400.35
2018-11-05T02:23:28.770Z,97400.25
2018-11-05T02:24:31.530Z,97401.61
2018-11-05T02:25:34.560Z,97405.44
2018-11-05T02:26:37.323Z,97395.37
2018-11-05T02:27:49.734Z,97394.25
2018-11-05T02:28:52.565Z,97392.56
2018-11-05T02:29:55.322Z,97399.34
2018-11-05T02:30:58.048Z,97398.66
2018-11-05T02:32:00.805Z,97398.08
2018-11-05T02:33:03.749Z,97402.73
2018-11-05T02:35:18.495Z,97400.35
2018-11-05T02:36:23.010Z,97403.61
2018-11-05T02:37:25.777Z,97404.19
2018-11-05T02:38:28.538Z,97402.48
2018-11-05T02:39:31.301Z,97396.28
2018-11-05T02:40:34.423Z,97396.48
2018-11-05T02:41:37.265Z,97401.91
2018-11-05T02:42:40.670Z,97401.13
2018-11-05T02:43:44.633Z,97399.00
2018-11-05T02:44:47.460Z,97393.77
2018-11-05T02:45:50.286Z,97395.13
2018-11-05T02:46:56.131Z,97395.84
2018-11-05T02:47:58.849Z,97393.13
2018-11-05T02:49:01.727Z,97396.08
2018-11-05T02:50:04.767Z,97399.67
2018-11-05T02:51:07.502Z,97392.42
2018-11-05T02:52:10.274Z,97398.08
2018-11-05T02:53:13.036Z,97395.95
2018-11-05T02:54:15.825Z,97401.61
2018-11-05T02:55:19.848Z,97396.97
2018-11-05T02:56:22.662Z,97401.03
2018-11-05T02:57:26.184Z,97398.32
2018-11-05T02:58:32.293Z,97400.16
2018-11-05T02:59:38.092Z,97395.84
2018-11-05T03:00:40.993Z,97398.80
2018-11-05T03:01:43.771Z,97395.03
2018-11-05T03:02:46.568Z,97394.73
2018-11-05T03:03:49.318Z,97392.02
2018-11-05T03:04:52.538Z,97392.80
2018-11-05T03:05:55.621Z,97389.61
2018-11-05T03:06:58.548Z,97390.66
2018-11-05T03:08:01.296Z,97389.06
2018-11-05T03:09:04.973Z,97384.66
2018-11-05T03:10:07.919Z,97388.72
2018-11-05T03:11:11.061Z,97386.02
2018-11-05T03:12:13.845Z,97392.66
2018-11-05T03:13:16.656Z,97396.19
2018-11-05T03:14:19.394Z,97389.70
2018-11-05T03:15:22.208Z,97399.78
2018-11-05T03:16:24.958Z,97393.87
2018-11-05T03:17:28.972Z,97400.56
2018-11-05T03:18:32.285Z,97398.52
2018-11-05T03:19:35.022Z,97392.52
2018-11-05T03:20:37.806Z,97391.97
2018-11-05T03:21:41.378Z,97393.09
2018-11-05T03:22:44.573Z,97390.95
2018-11-05T03:23:47.791Z,97391.73
2018-11-05T03:24:50.598Z,97388.00
2018-11-05T03:25:53.370Z,97386.17
2018-11-05T03:26:56.859Z,97383.45
2018-11-05T03:27:59.701Z,97374.30
2018-11-05T03:29:02.545Z,97379.72
2018-11-05T03:30:05.659Z,97376.43
2018-11-05T03:31:08.440Z,97379.72
2018-11-05T03:32:11.209Z,97376.23
2018-11-05T03:33:13.942Z,97372.22
2018-11-05T03:34:16.701Z,97376.19
2018-11-05T03:35:22.465Z,97375.27
2018-11-05T03:36:25.912Z,97370.52
2018-11-05T03:37:28.661Z,97371.40
2018-11-05T03:38:32.341Z,97367.91
2018-11-05T03:39:35.153Z,97366.21
2018-11-05T03:40:37.917Z,97361.56
2018-11-05T03:41:40.779Z,97365.64
2018-11-05T03:42:44.191Z,97360.21
2018-11-05T03:43:46.981Z,97365.97
2018-11-05T03:44:49.754Z,97363.84
2018-11-05T03:45:52.575Z,97366.74
2018-11-05T03:46:55.334Z,97366.17
2018-11-05T03:47:58.100Z,97367.52
2018-11-05T03:49:01.268Z,97365.79
2018-11-05T03:50:04.027Z,97367.81
2018-11-05T03:51:06.782Z,97368.59
2018-11-05T03:52:09.519Z,97371.22
2018-11-05T03:53:13.330Z,97369.31
2018-11-05T03:54:16.093Z,97372.36
2018-11-05T03:55:20.208Z,97365.58
2018-11-05T03:56:23.086Z,97369.65
2018-11-05T03:57:25.815Z,97371.45
2018-11-05T03:58:28.568Z,97376.09
2018-11-05T03:59:31.351Z,97364.63
2018-11-05T04:00:34.087Z,97366.31
2018-11-05T04:01:37.338Z,97365.27
2018-11-05T04:02:40.187Z,97374.45
2018-11-05T04:03:43.080Z,97370.63
2018-11-05T04:04:45.890Z,97374.12
2018-11-05T04:05:48.823Z,97370.63
2018-11-05T04:06:51.590Z,97371.98
2018-11-05T04:07:55.090Z,97377.64
2018-11-05T04:08:57.938Z,97380.90
2018-11-05T04:10:02.376Z,97381.23
2018-11-05T04:11:05.140Z,97376.92
2018-11-05T04:12:07.882Z,97374.12
2018-11-05T04:13:10.897Z,97379.00
2018-11-05T04:14:14.084Z,97384.66
2018-11-05T04:15:17.387Z,97380.59
2018-11-05T04:16:20.192Z,97384.66
2018-11-05T04:17:22.969Z,97376.53
2018-11-05T04:19:35.190Z,97373.81
2018-11-05T04:20:37.951Z,97369.76
2018-11-05T04:21:44.587Z,97370.58
2018-11-05T04:22:47.320Z,97364.44
2018-11-05T04:23:50.114Z,97356.77
2018-11-05T04:24:52.851Z,97353.48
2018-11-05T04:25:56.105Z,97360.74
2018-11-05T04:26:59.234Z,97353.18
2018-11-05T04:28:02.141Z,97351.59
2018-11-05T04:29:04.870Z,97348.53
2018-11-05T04:30:07.636Z,97350.13
2018-11-05T04:31:10.422Z,97348.87
2018-11-05T04:32:13.659Z,97351.34
2018-11-05T04:33:16.433Z,97344.56
2018-11-05T04:34:19.202Z,97337.83
2018-11-05T04:35:23.069Z,97336.37
2018-11-05T04:36:25.833Z,97328.91
2018-11-05T04:37:28.635Z,97335.99
2018-11-05T04:38:32.265Z,97336.61
2018-11-05T04:39:35.790Z,97337.77
2018-11-05T04:40:38.557Z,97340.48
2018-11-05T04:41:41.475Z,97345.77
2018-11-05T04:42:44.233Z,97347.80
2018-11-05T04:43:46.971Z,97339.36
2018-11-05T04:44:50.112Z,97334.95
2018-11-05T04:45:52.883Z,97337.29
2018-11-05T04:46:56.218Z,97339.02
2018-11-05T04:47:58.988Z,97348.08
2018-11-05T04:49:01.753Z,97339.50
2018-11-05T04:50:05.746Z,97340.52
2018-11-05T04:51:09.021Z,97344.11
2018-11-05T04:52:11.764Z,97346.38
2018-11-05T04:53:15.525Z,97342.17
2018-11-05T04:54:18.255Z,97338.69
2018-11-05T04:55:21.017Z,97339.26
2018-11-05T04:56:23.962Z,97339.39
2018-11-05T04:57:26.729Z,97342.11
2018-11-05T04:58:30.525Z,97339.84
2018-11-05T04:59:34.160Z,97331.16
2018-11-05T05:00:36.904Z,97327.73
2018-11-05T05:01:40.292Z,97326.84
2018-11-05T05:02:43.737Z,97326.27
2018-11-05T05:03:46.520Z,97319.48
2018-11-05T05:04:49.669Z,97318.81
2018-11-05T05:05:52.450Z,97306.94
2018-11-05T05:06:55.174Z,97307.95
2018-11-05T05:07:57.924Z,97305.14
2018-11-05T05:09:01.150Z,97307.38
2018-11-05T05:10:03.880Z,97310.47
2018-11-05T05:11:06.637Z,97312.47
2018-11-05T05:12:11.035Z,97308.97
2018-11-05T05:13:13.745Z,97309.66
2018-11-05T05:14:17.132Z,97314.30
2018-11-05T05:15:20.418Z,97311.48
2018-11-05T05:16:23.488Z,97306.84
2018-11-05T05:17:26.512Z,97309.24
2018-11-05T05:18:29.355Z,97309.00
2018-11-05T05:19:36.708Z,97300.87
2018-11-05T05:20:40.290Z,97303.00
2018-11-05T05:21:43.728Z,97304.13
2018-11-05T05:22:46.878Z,97302.45
2018-11-05T05:23:49.582Z,97298.62
2018-11-05T05:24:54.408Z,97305.41
2018-11-05T05:25:57.413Z,97304.83
2018-11-05T05:27:00.166Z,97319.76
2018-11-05T05:28:04.621Z,97315.22
2018-11-05T05:29:07.443Z,97318.50
2018-11-05T05:30:10.240Z,97327.42
2018-11-05T05:31:12.963Z,97341.00
2018-11-05T05:32:16.487Z,97336.69
2018-11-05T05:33:19.284Z,97341.67
2018-11-05T05:34:22.574Z,97338.05
2018-11-05T05:35:25.294Z,97346.56
2018-11-05T05:36:28.273Z,97343.30
2018-11-05T05:37:32.076Z,97344.22
2018-11-05T05:38:34.838Z,97336.66
2018-11-05T05:39:37.582Z,97345.38
2018-11-05T05:40:40.961Z,97342.89
2018-11-05T05:41:43.810Z,97341.77
2018-11-05T05:42:46.574Z,97349.11
2018-11-05T05:43:52.362Z,97337.23
2018-11-05T05:44:55.117Z,97347.61
2018-11-05T05:45:57.862Z,97349.78
2018-11-05T05:47:01.476Z,97347.51
2018-11-05T05:48:04.729Z,97348.63
2018-11-05T05:49:07.491Z,97340.96
2018-11-05T05:50:10.805Z,97342.89
2018-11-05T05:51:13.421Z,97339.27
2018-11-05T05:52:16.684Z,97340.63
2018-11-05T05:53:19.813Z,97338.25
2018-11-05T05:54:26.278Z,97341.20
2018-11-05T05:55:29.019Z,97333.84
2018-11-05T05:56:32.068Z,97334.41
2018-11-05T05:57:34.892Z,97336.00
2018-11-05T05:58:38.082Z,97333.53
2018-11-05T05:59:41.435Z,97337.59
2018-11-05T06:00:44.290Z,97339.16
2018-11-05T06:01:47.079Z,97334.31
2018-11-05T06:02:49.913Z,97340.75
2018-11-05T06:03:52.841Z,97336.92
2018-11-05T06:04:59.266Z,97332.84
2018-11-05T06:06:03.476Z,97338.52
2018-11-05T06:07:06.233Z,97340.65
2018-11-05T06:08:09.007Z,97337.39
2018-11-05T06:09:12.081Z,97340.78
2018-11-05T06:10:15.721Z,97329.34
2018-11-05T06:11:18.467Z,97333.53
2018-11-05T06:12:22.568Z,97332.64
2018-11-05T06:13:25.416Z,97328.56
2018-11-05T06:14:28.481Z,97327.99
2018-11-05T06:15:35.160Z,97330.16
2018-11-05T06:16:39.471Z,97326.63
2018-11-05T06:17:42.335Z,97329.34
2018-11-05T06:18:45.450Z,97322.02
2018-11-05T06:19:49.303Z,97333.34
2018-11-05T06:20:53.202Z,97330.63
2018-11-05T06:21:56.975Z,97328.94
2018-11-05T06:23:00.597Z,97332.67
2018-11-05T06:24:03.684Z,97333.45
2018-11-05T06:25:08.290Z,97335.38
2018-11-05T06:26:12.272Z,97337.86
2018-11-05T06:27:15.027Z,97334.36
2018-11-05T06:28:17.901Z,97333.79
2018-11-05T06:29:20.822Z,97325.87
2018-11-05T06:30:23.591Z,97326.12
2018-11-05T06:31:26.816Z,97326.90
2018-11-05T06:45:23.958Z,97341.86
2018-11-05T06:46:26.918Z,97342.88
2018-11-05T06:47:29.659Z,97338.56
2018-11-05T06:48:32.442Z,97339.61
2018-11-05T06:49:35.213Z,97344.23
2018-11-05T06:50:40.768Z,97337.20
2018-11-05T06:51:43.524Z,97342.56
2018-11-05T06:52:46.846Z,97347.19
2018-11-05T06:53:50.043Z,97354.31
2018-11-05T06:54:52.786Z,97352.48
2018-11-05T06:55:56.767Z,97358.93
2018-11-05T06:56:59.889Z,97358.63
2018-11-05T06:58:02.693Z,97371.08
2018-11-05T06:59:06.190Z,97370.84
2018-11-05T07:00:09.972Z,97369.48
2018-11-05T07:01:12.749Z,97374.34
2018-11-05T07:02:15.485Z,97370.84
2018-11-05T07:03:18.592Z,97370.61
2018-11-05T07:04:21.864Z,97371.97
2018-11-05T07:05:25.306Z,97365.64
2018-11-05T07:06:28.242Z,97359.98
2018-11-05T07:07:32.458Z,97371.63
2018-11-05T07:08:35.311Z,97361.34
2018-11-05T07:09:38.613Z,97367.08
2018-11-05T07:10:41.405Z,97371.15
2018-11-05T07:11:44.197Z,97370.95
2018-11-05T07:12:48.888Z,97369.80
2018-11-05T07:13:51.896Z,97366.19
2018-11-05T07:14:55.589Z,97358.73
2018-11-05T07:15:58.779Z,97357.91
2018-11-05T07:17:02.069Z,97364.70
2018-11-05T07:18:04.857Z,97368.44
2018-11-05T07:19:10.748Z,97365.52
2018-11-05T07:20:21.421Z,97371.25
2018-11-05T07:21:25.736Z,97376.92
2018-11-05T07:22:28.585Z,97364.36
2018-11-05T07:23:31.365Z,97357.91
2018-11-05T07:24:34.145Z,97357.27
2018-11-05T07:25:37.462Z,97353.97
2018-11-05T07:26:40.438Z,97358.16
2018-11-05T07:27:43.841Z,97357.03
2018-11-05T07:28:47.166Z,97365.72
2018-11-05T07:29:49.958Z,97358.16
2018-11-05T07:30:52.742Z,97362.59
2018-11-05T07:31:56.745Z,97359.98
2018-11-05T07:32:59.810Z,97355.09
2018-11-05T07:34:04.240Z,97353.97
2018-11-05T07:35:06.949Z,97352.38
2018-11-05T07:36:09.703Z,97350.78
2018-11-05T07:37:15.814Z,97338.02
2018-11-05T07:38:18.546Z,97341.52
2018-11-05T07:39:21.402Z,97343.58
2018-11-05T07:40:24.425Z,97341.41
2018-11-05T07:41:29.621Z,97341.10
2018-11-05T07:42:42.849Z,97338.59
2018-11-05T07:43:46.233Z,97344.39
2018-11-05T07:44:49.031Z,97341.67
2018-11-05T07:45:52.814Z,97340.66
2018-11-05T07:46:55.626Z,97346.33
2018-11-05T07:47:58.389Z,97338.72
2018-11-05T07:49:02.544Z,97339.06
2018-11-05T07:50:05.322Z,97341.78
2018-11-05T07:51:09.423Z,97341.10
2018-11-05T07:52:13.191Z,97343.81
2018-11-05T07:53:15.987Z,97346.73
2018-11-05T07:54:18.904Z,97341.64
2018-11-05T07:55:22.466Z,97344.12
2018-11-05T07:56:25.598Z,97344.36
2018-11-05T07:57:28.417Z,97345.51
2018-11-05T07:58:33.522Z,97339.73
2018-11-05T07:59:38.228Z,97341.22
2018-11-05T08:00:45.817Z,97335.90
2018-11-05T08:01:48.566Z,97334.54
2018-11-05T08:02:52.448Z,97328.22
2018-11-05T08:03:55.304Z,97335.48
2018-11-05T08:04:58.568Z,97330.95
2018-11-05T08:06:01.309Z,97334.58
2018-11-05T08:07:10.343Z,97335.69
2018-11-05T08:08:13.775Z,97329.58
2018-11-05T08:09:16.552Z,97333.66
2018-11-05T08:10:19.338Z,97337.59
2018-11-05T08:11:25.337Z,97333.29
2018-11-05T08:12:28.115Z,97329.34
2018-11-05T08:13:33.935Z,97324.69
2018-11-05T08:14:36.753Z,97327.64
2018-11-05T08:15:39.579Z,97326.28
2018-11-05T08:16:47.043Z,97327.88
2018-11-05T08:17:52.080Z,97329.11
2018-11-05T08:18:55.705Z,97331.39
2018-11-05T08:19:58.876Z,97331.15
2018-11-05T08:21:03.365Z,97327.31
2018-11-05T08:22:06.997Z,97327.75
2018-11-05T08:23:10.300Z,97327.98
2018-11-05T08:24:14.041Z,97328.68
2018-11-05T08:25:18.659Z,97323.84
2018-11-05T08:26:21.956Z,97329.73
2018-11-05T08:27:25.061Z,97338.30
2018-11-05T08:28:27.844Z,97339.22
2018-11-05T08:29:32.735Z,97334.56
2018-11-05T08:30:38.222Z,97329.83
2018-11-05T08:31:41.149Z,97329.83
2018-11-05T08:32:47.916Z,97335.83
2018-11-05T08:33:50.953Z,97329.62
2018-11-05T08:34:56.361Z,97331.63
2018-11-05T08:35:59.654Z,97325.31
2018-11-05T08:37:03.724Z,97336.39
2018-11-05T08:38:07.483Z,97337.17
2018-11-05T08:39:10.854Z,97343.52
2018-11-05T08:40:14.869Z,97335.59
2018-11-05T08:41:17.910Z,97330.64
2018-11-05T08:42:21.803Z,97331.78
2018-11-05T08:43:25.506Z,97328.36
2018-11-05T08:44:30.351Z,97328.94
2018-11-05T08:45:33.683Z,97333.90
2018-11-05T08:46:37.199Z,97333.45
2018-11-05T08:47:40.869Z,97330.64
2018-11-05T08:48:44.412Z,97322.38
2018-11-05T08:49:47.871Z,97321.48
2018-11-05T08:50:50.850Z,97322.38
2018-11-05T08:51:53.627Z,97318.53
2018-11-05T08:52:56.425Z,97317.73
2018-11-05T08:53:59.783Z,97309.35
2018-11-05T08:55:03.117Z,97302.25
2018-11-05T08:56:06.500Z,97302.92
2018-11-05T08:57:09.526Z,97302.23
2018-11-05T08:58:12.817Z,97300.67
2018-11-05T08:59:15.584Z,97303.52
2018-11-05T09:00:23.221Z,97302.46
2018-11-05T09:01:30.412Z,97311.85
2018-11-05T09:02:33.199Z,97314.25
2018-11-05T09:03:37.510Z,97313.80
2018-11-05T09:04:42.509Z,97312.91
2018-11-05T09:05:47.596Z,97312.45
2018-11-05T09:06:50.389Z,97310.63
2018-11-05T09:07:54.390Z,97310.17
2018-11-05T09:08:58.226Z,97308.25
2018-11-05T09:10:01.482Z,97307.91
2018-11-05T09:11:07.958Z,97303.59
2018-11-05T09:12:10.767Z,97301.12
2018-11-05T09:13:13.875Z,97302.59
2018-11-05T09:14:22.488Z,97301.70
2018-11-05T09:15:25.243Z,97308.16
2018-11-05T09:16:28.261Z,97307.35
2018-11-05T09:17:34.688Z,97302.25
2018-11-05T09:18:39.494Z,97305.20
2018-11-05T09:19:43.919Z,97310.30
2018-11-05T09:20:47.697Z,97308.81
2018-11-05T09:21:51.525Z,97308.50
2018-11-05T09:22:54.510Z,97307.27
2018-11-05T09:24:01.578Z,97304.63
2018-11-05T09:25:05.677Z,97298.30
2018-11-05T09:26:09.734Z,97296.48
2018-11-05T09:27:13.250Z,97295.13
2018-11-05T09:28:16.045Z,97310.89
2018-11-05T09:29:18.868Z,97299.55
2018-11-05T09:30:24.906Z,97302.95
2018-11-05T09:31:31.785Z,97305.68
2018-11-05T09:33:46.519Z,97312.56
2018-11-05T09:34:49.777Z,97305.34
2018-11-05T09:35:55.638Z,97315.98
2018-11-05T09:36:58.644Z,97316.89
2018-11-05T09:38:10.292Z,97311.91
2018-11-05T09:39:14.465Z,97304.88
2018-11-05T09:40:19.311Z,97303.41
2018-11-05T09:41:22.887Z,97303.84
2018-11-05T09:42:26.493Z,97301.59
2018-11-05T09:43:31.353Z,97296.38
2018-11-05T09:44:36.182Z,97300.69
2018-11-05T09:45:39.502Z,97299.53
2018-11-05T09:46:42.449Z,97301.94
2018-11-05T09:47:47.119Z,97297.63
2018-11-05T09:48:50.482Z,97300.78
2018-11-05T09:49:53.230Z,97296.30
2018-11-05T09:50:56.033Z,97296.61
2018-11-05T09:52:00.137Z,97301.62
2018-11-05T09:53:03.303Z,97295.36
2018-11-05T09:54:06.232Z,97299.78
2018-11-05T09:55:10.247Z,97301.50
2018-11-05T09:56:16.224Z,97301.38
2018-11-05T09:57:20.061Z,97302.97
2018-11-05T09:58:23.325Z,97307.48
2018-11-05T09:59:29.276Z,97305.09
2018-11-05T10:00:33.551Z,97306.45
2018-11-05T10:01:36.321Z,97302.37
2018-11-05T10:02:43.990Z,97293.38
2018-11-05T10:03:59.223Z,97297.83
2018-11-05T10:05:02.312Z,97292.39
2018-11-05T10:06:05.460Z,97291.49
2018-11-05T10:07:09.427Z,97299.78
2018-11-05T10:08:19.127Z,97286.95
2018-11-05T10:09:23.318Z,97285.45
2018-11-05T10:10:27.809Z,97282.47
2018-11-05T10:11:31.428Z,97288.02
2018-11-05T10:12:35.439Z,97281.75
2018-11-05T10:13:40.043Z,97280.95
2018-11-05T10:14:43.257Z,97286.32
2018-11-05T10:15:46.728Z,97277.52
2018-11-05T10:16:50.443Z,97264.92
2018-11-05T10:17:53.370Z,97275.92
2018-11-05T10:19:00.629Z,97277.52
2018-11-05T10:20:09.418Z,97267.27
2018-11-05T10:21:12.815Z,97269.19
2018-11-05T10:22:16.178Z,97268.16
2018-11-05T10:23:20.772Z,97264.98
2018-11-05T10:24:23.699Z,97264.26
2018-11-05T10:25:26.647Z,97266.94
2018-11-05T10:26:29.483Z,97267.61
2018-11-05T10:27:32.246Z,97268.20
2018-11-05T10:28:35.407Z,97269.89
2018-11-05T10:29:39.349Z,97261.31
2018-11-05T10:30:42.099Z,97267.87
2018-11-05T10:31:44.960Z,97263.48
2018-11-05T10:32:48.609Z,97262.72
2018-11-05T10:33:51.806Z,97262.16
2018-11-05T10:34:58.161Z,97255.25
2018-11-05T10:36:03.317Z,97260.83
2018-11-05T10:37:06.146Z,97262.20
2018-11-05T10:38:09.482Z,97261.48
2018-11-05T10:39:12.293Z,97262.27
2018-11-05T10:40:16.703Z,97268.95
2018-11-05T10:41:23.717Z,97265.25
2018-11-05T10:42:26.491Z,97270.57
2018-11-05T10:43:29.257Z,97272.55
2018-11-05T10:44:32.308Z,97267.98
2018-11-05T10:45:36.111Z,97265.09
2018-11-05T10:46:43.496Z,97267.70
2018-11-05T10:47:46.837Z,97267.08
2018-11-05T10:48:50.669Z,97270.98
2018-11-05T10:49:53.932Z,97267.34
2018-11-05T10:50:58.804Z,97264.66
2018-11-05T10:52:03.992Z,97266.97
2018-11-05T10:53:08.989Z,97265.25
2018-11-05T10:54:12.792Z,97262.45
2018-11-05T10:55:17.377Z,97260.67
2018-11-05T10:56:24.892Z,97260.50
2018-11-05T10:57:29.023Z,97249.52
2018-11-05T11:04:50.499Z,97247.38
2018-11-05T11:05:55.258Z,97239.34
2018-11-05T11:07:01.316Z,97239.54
2018-11-05T11:08:06.133Z,97246.92
2018-11-05T11:09:10.602Z,97246.25
2018-11-05T11:10:14.522Z,97242.92
2018-11-05T11:11:18.537Z,97243.25
2018-11-05T11:12:22.006Z,97252.45
2018-11-05T11:13:25.726Z,97250.50
2018-11-05T11:14:32.605Z,97245.36
2018-11-05T11:15:35.475Z,97248.33
2018-11-05T11:16:38.827Z,97251.63
2018-11-05T11:22:02.400Z,97239.94
2018-11-05T11:23:06.992Z,97232.86
2018-11-05T11:24:16.671Z,97226.17
2018-11-05T11:25:20.612Z,97235.12
2018-11-05T11:27:43.263Z,97234.80
2018-11-05T11:28:47.476Z,97226.67
2018-11-05T11:31:07.016Z,97245.84
2018-11-05T17:44:45.523Z,97132.05
2018-11-05T17:45:48.683Z,97133.94
2018-11-05T17:46:53.134Z,97135.30
2018-11-05T17:47:57.339Z,97139.39
2018-11-05T17:49:02.344Z,97137.58
2018-11-05T17:50:08.497Z,97140.89
2018-11-05T17:51:16.291Z,97137.58
2018-11-05T17:52:19.076Z,97140.31
2018-11-05T17:53:22.720Z,97141.12
2018-11-05T17:54:25.491Z,97130.77
2018-11-05T17:55:29.576Z,97135.66
2018-11-05T17:56:34.388Z,97131.12
2018-11-05T17:57:38.309Z,97135.08
2018-11-05T17:58:41.297Z,97135.75
2018-11-05T17:59:46.694Z,97140.39
2018-11-05T18:00:50.501Z,97127.58
2018-11-05T18:01:54.509Z,97128.27
2018-11-05T18:03:00.357Z,97129.63
2018-11-05T18:04:04.478Z,97131.35
2018-11-05T18:05:11.573Z,97127.09
2018-11-05T18:06:22.414Z,97128.23
2018-11-05T18:07:28.509Z,97127.81
2018-11-05T18:08:32.844Z,97120.05
2018-11-05T18:10:47.200Z,97128.03
2018-11-05T18:11:50.814Z,97129.17
2018-11-05T18:12:59.150Z,97127.45
2018-11-05T18:14:02.732Z,97128.31
2018-11-05T18:15:05.756Z,97124.67
2018-11-05T18:16:08.848Z,97125.59
2018-11-05T18:17:13.255Z,97125.03
2018-11-05T18:18:17.124Z,97124.31
2018-11-05T18:19:24.360Z,97120.90
2018-11-05T18:20:31.008Z,97121.45
2018-11-05T18:21:34.800Z,97120.90
2018-11-05T18:22:38.607Z,97121.95
2018-11-05T18:23:42.747Z,97117.77
2018-11-05T18:24:45.523Z,97116.69
2018-11-05T18:25:52.392Z,97121.82
2018-11-05T18:26:56.378Z,97115.50
2018-11-05T18:28:00.484Z,97118.37
2018-11-05T18:29:03.432Z,97124.45
2018-11-05T18:31:28.390Z,97127.36
2018-11-05T18:32:32.265Z,97127.00
2018-11-05T18:33:35.548Z,97129.59
2018-11-05T18:34:42.066Z,97127.00
2018-11-05T18:35:45.226Z,97124.86
2018-11-05T18:36:48.128Z,97126.00
2018-11-05T18:37:51.021Z,97121.64
2018-11-05T18:38:55.221Z,97121.50
2018-11-05T18:39:59.608Z,97121.08
2018-11-05T18:41:03.727Z,97113.18
2018-11-05T18:42:07.591Z,97119.19
2018-11-05T18:43:10.698Z,97119.63
2018-11-05T18:44:13.465Z,97118.63
2018-11-05T18:45:18.560Z,97124.28
2018-11-05T18:46:22.392Z,97123.59
2018-11-05T18:47:26.532Z,97127.45
2018-11-05T18:48:31.522Z,97133.08
2018-11-05T18:49:34.330Z,97132.70
2018-11-05T18:50:38.791Z,97129.26
2018-11-05T18:51:44.713Z,97124.26
2018-11-05T18:52:48.687Z,97127.86
2018-11-05T18:53:54.977Z,97128.95
2018-11-05T18:54:58.421Z,97124.73
2018-11-05T18:56:01.250Z,97134.48
2018-11-05T18:57:05.816Z,97122.45
2018-11-05T18:58:08.912Z,97125.09
2018-11-05T18:59:14.702Z,97126.22
2018-11-05T19:00:26.512Z,97126.09
2018-11-05T19:01:29.269Z,97117.23
2018-11-05T19:02:36.340Z,97120.59
2018-11-05T19:03:40.259Z,97127.05
2018-11-05T19:04:43.241Z,97124.69
2018-11-05T19:05:48.093Z,97131.77
2018-11-05T19:06:51.519Z,97134.72
2018-11-05T19:07:54.530Z,97138.08
2018-11-05T19:08:58.041Z,97138.22
2018-11-05T19:10:03.283Z,97141.75
2018-11-05T19:11:07.390Z,97141.48
2018-11-05T19:12:10.710Z,97133.95
2018-11-05T19:13:14.288Z,97140.49